Latest Coastal Weather Observations for Cape Nelson

IDS60701

Issued at 11:51 am CST Tuesday 28 June 2022 (issued every 10 minutes, with the page automatically refreshed every 10 minutes)

About coastal observations | Map of coastal stations | Coastal observations for SA | Marine services | Other Formats
Station Details ID: 090184 Name: CAPE NELSON LIGHTHOUSE Lat: -38.43 Lon: 141.54 Height: 45.4 m
Data from the previous 72 hours. | See also: Recent months at Cape Nelson
Date/Time
CST
Wind Sea
Height
m
Swell Vis
km
Cloud Weather Temp
°C
Press
MSL
hPa
Rain since
9am
mm
Dir  Spd
kts
Gust
kts
Height
m
Period
s
Dir
28/11:30am NNW 5 19 - - - - - - - 12.4 1028.1 0.0
28/11:29am NNW 4 19 - - - - - - - 12.4 1028.2 0.0
28/11:00am CALM 0 0 - - - - - - - 12.3 1028.7 0.0
28/10:30am CALM 0 0 - - - - - - - 11.5 1029.0 0.0
28/10:00am CALM 0 0 - - - - - - - 10.5 1029.2 0.0
28/09:30am NW 11 17 - - - - - - - 9.4 1029.2 0.0
28/09:00am NNW 14 19 - - - - - - - 8.8 1028.3 0.0
28/08:30am NNW 14 23 - - - - - - - 8.5 1028.5 0.0
28/08:00am NNW 10 15 - - - - - - - 7.5 1029.5 0.0
28/07:30am NNW 8 12 - - - - - - - 7.1 1029.6 0.0
28/07:00am NNW 8 12 - - - - - - - 7.7 1029.4 0.0
28/06:30am NNW 10 13 - - - - - - - 7.5 1029.3 0.0
28/06:00am N 9 14 - - - - - - - 7.1 1029.0 0.0
28/05:30am N 10 15 - - - - - - - 7.3 1029.1 0.0
28/05:00am NNW 12 17 - - - - - - - 8.1 1029.4 0.0
28/04:30am NNW 11 17 - - - - - - - 8.1 1029.6 0.0
28/04:00am NNW 13 17 - - - - - - - 8.4 1029.6 0.0
28/03:30am NNW 11 14 - - - - - - - 8.2 1029.8 0.0
28/03:00am NNW 9 13 - - - - - - - 7.8 1030.3 0.0
28/02:30am NNW 9 13 - - - - - - - 8.0 1030.6 0.0
28/02:00am NNW 10 14 - - - - - - - 8.6 1030.7 0.0
28/01:30am NNW 9 14 - - - - - - - 8.4 1030.7 0.0
28/01:00am NNW 7 13 - - - - - - - 9.1 1030.9 0.0
28/12:30am CALM 0 6 - - - - - - - 9.3 1031.1 0.0
28/12:00am NNW 10 14 - - - - - - - 9.5 1031.4 0.0
 
Date/Time
CST
Wind Sea
Height
m
Swell Vis
km
Cloud Weather Temp
°C
Press
MSL
hPa
Rain since
9am
mm
Dir  Spd
kts
Gust
kts
Height
m
Period
s
Dir
27/11:30pm CALM 0 0 - - - - - - - 9.2 1031.6 0.0
27/11:00pm CALM 0 5 - - - - - - - 9.2 1031.6 0.0
27/10:30pm NNW 2 13 - - - - - - - 9.4 1031.7 0.0
27/10:00pm CALM 0 0 - - - - - - - 9.8 1031.8 0.0
27/09:30pm CALM 0 11 - - - - - - - 10.0 1032.0 0.0
27/09:00pm CALM 0 0 - - - - - - - 10.2 1032.2 0.0
27/08:30pm CALM 0 0 - - - - - - - 10.2 1032.3 0.0
27/08:00pm CALM 0 0 - - - - - - - 10.4 1032.3 0.0
27/07:30pm CALM 0 0 - - - - - - - 10.5 1032.4 0.0
27/07:00pm CALM 0 0 - - - - - - - 10.6 1032.4 0.0
27/06:30pm CALM 0 0 - - - - - - - 10.6 1032.4 0.0
27/06:00pm CALM 0 0 - - - - - - - 10.7 1032.1 0.0
27/05:30pm CALM 0 0 - - - - - - - 11.5 1032.2 0.0
27/05:00pm WNW 9 13 - - - - - - - 11.8 1032.1 0.0
27/04:30pm WNW 9 12 - - - - - - - 12.0 1032.1 0.0
27/04:00pm WNW 10 13 - - - - - - - 12.5 1032.1 0.0
27/03:30pm CALM 0 0 - - - - - - - 12.7 1032.3 0.0
27/03:00pm CALM 0 0 - - - - - - - 12.9 1032.6 0.0
27/02:30pm CALM 0 0 - - - - - - - 12.9 1032.6 0.0
27/02:00pm CALM 0 0 - - - - - - - 12.7 1032.8 0.0
27/01:30pm CALM 0 0 - - - - - - - 13.1 1033.0 0.0
27/01:00pm CALM 0 0 - - - - - - - 12.6 1033.5 0.0
27/12:30pm CALM 0 0 - - - - - - - 12.4 1033.6 0.0
27/12:00pm CALM 0 0 - - - - - - - 12.5 1034.0 0.0
27/11:30am CALM 0 0 - - - - - - - 12.2 1034.2 0.0
27/11:00am CALM 0 0 - - - - - - - 12.4 1034.3 0.0
27/10:30am CALM 0 0 - - - - - - - 12.4 1034.4 0.0
27/10:00am NNW 1 10 - - - - - - - 12.6 1034.5 0.0
27/09:30am CALM 0 0 - - - - - - - 12.3 1034.2 0.0
27/09:00am CALM 0 0 - - - - - - - 12.1 1033.9 0.0
27/08:30am WNW 9 15 - - - - - - - 11.8 1033.4 1.8
27/08:00am NW 6 11 - - - - - - - 11.8 1033.0 1.8
27/07:30am W 11 15 - - - - - - - 11.8 1032.9 1.8
27/07:00am WNW 7 11 - - - - - - - 11.5 1032.5 1.8
27/06:30am NW 5 10 - - - - - - - 11.4 1032.0 1.8
27/06:00am ENE 5 8 - - - - - - - 11.1 1031.9 1.8
27/05:30am NNE 7 11 - - - - - - - 11.5 1031.9 1.8
27/05:00am NNE 7 9 - - - - - - - 11.5 1031.6 1.8
27/04:30am S 8 14 - - - - - - - 11.3 1031.5 1.8
27/04:00am SSE 7 14 - - - - - - - 11.3 1031.5 1.8
27/03:30am NE 7 10 - - - - - - - 11.5 1031.3 1.8
27/03:00am ENE 6 11 - - - - - - - 11.4 1031.3 1.8
27/02:30am SE 7 13 - - - - - - - 11.3 1031.3 1.8
27/02:00am WNW 9 15 - - - - - - - 11.1 1031.7 1.8
27/01:30am SSE 10 17 - - - - - - - 11.4 1031.4 1.8
27/01:00am ENE 7 12 - - - - - - - 11.1 1031.1 1.8
27/12:30am SSE 9 20 - - - - - - - 11.3 1031.1 1.8
27/12:00am E 7 12 - - - - - - - 11.1 1031.1 1.8
 
Date/Time
CST
Wind Sea
Height
m
Swell Vis
km
Cloud Weather Temp
°C
Press
MSL
hPa
Rain since
9am
mm
Dir  Spd
kts
Gust
kts
Height
m
Period
s
Dir
26/11:30pm SSE 9 15 - - - - - - - 11.0 1031.0 1.8
26/11:00pm SSE 9 18 - - - - - - - 11.2 1030.9 1.8
26/10:30pm SSE 10 18 - - - - - - - 11.0 1030.8 1.8
26/10:00pm ESE 9 15 - - - - - - - 11.0 1030.5 1.8
26/09:30pm SE 12 22 - - - - - - - 10.7 1030.5 1.8
26/09:00pm SSE 9 16 - - - - - - - 10.9 1030.0 1.8
26/08:30pm S 12 21 - - - - - - - 11.0 1029.9 1.8
26/08:00pm SSE 10 17 - - - - - - - 11.0 1029.6 1.8
26/07:30pm S 11 20 - - - - - - - 10.6 1028.9 1.8
26/07:00pm S 12 18 - - - - - - - 10.3 1028.4 1.8
26/06:30pm SSE 10 20 - - - - - - - 9.7 1028.2 1.8
26/06:00pm S 14 24 - - - - - - - 10.6 1027.9 0.4
26/05:30pm SSE 11 21 - - - - - - - 10.7 1027.5 0.4
26/05:00pm SSE 16 28 - - - - - - - 10.5 1027.3 0.4
26/04:56pm E 11 25 - - - - - - - 10.9 1027.1 0.4
26/04:30pm E 8 14 - - - - - - - 10.8 1026.7 0.4
26/04:00pm NE 9 19 - - - - - - - 11.2 1026.2 0.4
26/03:30pm NE 9 17 - - - - - - - 11.4 1026.0 0.4
26/03:00pm NNE 8 22 - - - - - - - 11.8 1025.9 0.4
26/02:30pm N 9 14 - - - - - - - 11.3 1025.5 0.4
26/02:00pm SSE 8 17 - - - - - - - 11.1 1025.1 0.4
26/01:30pm S 7 12 - - - - - - - 10.6 1025.2 0.4
26/01:00pm ESE 9 21 - - - - - - - 11.1 1024.9 0.2
26/12:30pm SSE 10 16 - - - - - - - 11.5 1024.8 0.2
26/12:00pm ENE 8 14 - - - - - - - 12.0 1024.8 0.2
26/11:30am NNE 9 15 - - - - - - Recent precip. 11.5 1024.7 0.2
26/11:00am W 9 15 - - - - - - - 12.1 1024.8 0.2
26/10:30am NNE 6 17 - - - - - - - 12.2 1024.6 0.0
26/10:00am E 8 20 - - - - - - - 11.5 1024.6 0.0
26/09:30am SSE 8 14 - - - - - - - 11.8 1024.1 0.0
26/09:00am SSE 10 18 - - - - - - - 11.2 1023.7 0.0
26/08:30am NNE 9 16 - - - - - - - 11.5 1023.3 2.2
26/08:00am ENE 9 15 - - - - - - - 11.6 1023.3 2.2
26/07:30am N 9 16 - - - - - - - 11.9 1022.8 2.2
26/07:00am N 9 15 - - - - - - - 11.9 1022.4 2.2
26/06:30am NNW 10 15 - - - - - - - 11.8 1021.8 2.2
26/06:00am NW 12 18 - - - - - - - 11.9 1021.3 2.2
26/05:30am NNW 10 20 - - - - - - - 12.0 1020.7 2.2
26/05:00am NE 9 16 - - - - - - - 11.9 1020.5 2.2
26/04:30am NNE 10 15 - - - - - - - 12.1 1020.2 2.2
26/04:00am NNE 9 16 - - - - - - - 12.2 1019.9 2.2
26/03:30am NNW 11 21 - - - - - - - 12.5 1019.7 2.2
26/03:00am N 9 16 - - - - - - - 11.6 1019.5 2.2
26/02:30am W 11 17 - - - - - - Recent precip. 12.0 1019.6 2.2
26/02:00am W 16 23 - - - - - - - 11.3 1019.6 2.2
26/01:30am NW 15 29 - - - - - - - 11.4 1019.1 2.0
26/01:02am W 19 28 - - - - - - - 11.5 1018.9 1.6
26/01:00am W 20 30 - - - - - - - 11.9 1019.0 1.4
26/12:52am W 27 38 - - - - - - - 11.4 1018.8 1.4
26/12:50am W 27 38 - - - - - - - 11.4 1018.6 1.4
26/12:30am WNW 17 29 - - - - - - - 12.2 1018.6 1.2
26/12:06am W 21 37 - - - - - - - 13.4 1018.6 1.2
26/12:00am WNW 17 27 - - - - - - - 13.9 1018.5 1.2
 
Date/Time
CST
Wind Sea
Height
m
Swell Vis
km
Cloud Weather Temp
°C
Press
MSL
hPa
Rain since
9am
mm
Dir  Spd
kts
Gust
kts
Height
m
Period
s
Dir
25/11:31pm WNW 18 28 - - - - - - - 13.5 1018.6 1.2
25/11:30pm WNW 18 24 - - - - - - - 13.5 1018.6 1.2
25/11:00pm W 21 29 - - - - - - - 13.7 1018.4 1.2
25/10:30pm W 15 29 - - - - - - - 13.7 1018.3 1.2
25/10:09pm WNW 15 27 - - - - - - - 12.6 1018.4 1.2
25/10:00pm WNW 16 22 - - - - - - - 12.7 1018.4 1.2
25/09:30pm NW 18 28 - - - - - - - 12.4 1018.1 1.2
25/09:24pm NW 18 28 - - - - - - - 12.3 1018.0 1.2
25/09:00pm NW 16 23 - - - - - - - 12.2 1018.1 1.2
25/08:30pm NW 16 24 - - - - - - Recent precip. 12.2 1017.8 1.2
25/08:00pm NW 16 24 - - - - - - - 11.9 1017.6 1.2
25/07:32pm NW 17 27 - - - - - - - 12.0 1017.3 1.0
25/07:30pm NW 16 25 - - - - - - - 11.9 1017.3 1.0
25/07:00pm NW 15 21 - - - - - - - 12.1 1017.3 1.0
25/06:30pm NW 15 21 - - - - - - - 12.3 1017.2 0.8
25/06:00pm NW 16 22 - - - - - - - 12.5 1016.8 0.8
25/05:37pm WNW 17 27 - - - - - - - 12.9 1016.6 0.8
25/05:30pm WNW 17 26 - - - - - - Recent precip. 12.6 1016.6 0.8
25/05:00pm NW 17 22 - - - - - - - 13.0 1016.2 0.4
25/04:31pm NW 16 28 - - - - - - - 13.2 1016.1 0.4
25/04:30pm NW 16 24 - - - - - - - 13.2 1016.2 0.4
25/04:09pm NW 17 27 - - - - - - - 13.7 1016.1 0.4
25/04:00pm NW 18 25 - - - - - - - 14.0 1016.0 0.4
25/03:44pm NW 17 27 - - - - - - - 14.2 1016.0 0.4
25/03:30pm WNW 19 26 - - - - - - - 14.3 1016.0 0.4
25/03:00pm WNW 19 26 - - - - - - - 14.6 1016.0 0.4
25/02:33pm WNW 22 32 - - - - - - - 14.8 1016.0 0.4
25/02:30pm WNW 21 27 - - - - - - - 14.8 1016.0 0.4
25/02:00pm WNW 21 28 - - - - - - - 14.9 1016.0 0.4
25/01:49pm WNW 18 28 - - - - - - - 14.9 1016.1 0.4
25/01:30pm WNW 17 25 - - - - - - - 14.6 1016.4 0.4
25/01:00pm WNW 20 29 - - - - - - - 14.6 1016.5 0.4
25/12:30pm NW 18 32 - - - - - - - 13.3 1017.0 0.4
25/12:18pm NW 19 29 - - - - - - - 13.2 1016.9 0.4
25/12:00pm NW 17 26 - - - - - - - 13.6 1017.0 0.4
25/11:30am NW 18 25 - - - - - - - 13.8 1017.0 0.4

Other formats

Comma delimited format used in spreadsheet applications
http://www.bom.gov.au/fwo/IDS60701/IDS60701.94826.axf

JavaScript Object Notation format (JSON) in row-major order
http://www.bom.gov.au/fwo/IDS60701/IDS60701.94826.json

Data quality

Most of these data are generated automatically and are frequently updated. Quality checks on data are not normally performed. It is possible for incorrect values to appear. Refer to information at About Latest Weather Observations and please check the disclaimer before using these data.